This is the latest recevied weather packets stored in our database for station/object OE6ACM-10. If no packets are shown the sender has not sent any weather packets the latest 10 day(s).
| Time | Temp. | Humidity | Pressure | Rain* | Wind** | Luminosity | Snow |
|---|---|---|---|---|---|---|---|
| 1777997256 | 34.44° C | 68% | 918.4 hPa | - | - | - | - |
| 1777996956 | 35° C | 62% | 918.1 hPa | - | - | - | - |
| 1777996656 | 33.89° C | 67% | 918.2 hPa | - | - | - | - |
| 1777996356 | 34.44° C | 63% | 918.2 hPa | - | - | - | - |
| 1777996056 | 36.11° C | 59% | 918.1 hPa | - | - | - | - |
| 1777995756 | 35° C | 63% | 918 hPa | - | - | - | - |
| 1777995456 | 35° C | 63% | 918.1 hPa | - | - | - | - |
| 1777995156 | 33.89° C | 68% | 918.1 hPa | - | - | - | - |
| 1777994856 | 34.44° C | 69% | 918.2 hPa | - | - | - | - |
| 1777994556 | 35° C | 64% | 918.3 hPa | - | - | - | - |
| 1777994256 | 35.56° C | 63% | 918.1 hPa | - | - | - | - |
| 1777993956 | 35° C | 65% | 918.3 hPa | - | - | - | - |
| 1777993656 | 34.44° C | 66% | 918.4 hPa | - | - | - | - |
| 1777993356 | 34.44° C | 63% | 918.5 hPa | - | - | - | - |
| 1777993056 | 37.78° C | 50% | 918.3 hPa | - | - | - | - |
| 1777992756 | 39.44° C | 45% | 918.3 hPa | - | - | - | - |
| 1777992456 | 40° C | 42% | 918 hPa | - | - | - | - |
| 1777992156 | 38.33° C | 46% | 918 hPa | - | - | - | - |
| 1777991856 | 39.44° C | 41% | 918.1 hPa | - | - | - | - |
| 1777991556 | 42.78° C | 34% | 918.2 hPa | - | - | - | - |
| 1777991256 | 46.67° C | 34% | 918.1 hPa | - | - | - | - |
| 1777990956 | 45.56° C | 36% | 918.1 hPa | - | - | - | - |
| 1777990656 | 43.33° C | 38% | 918.2 hPa | - | - | - | - |
| 1777990356 | 42.22° C | 40% | 918.3 hPa | - | - | - | - |
| 1777990056 | 41.11° C | 42% | 918.5 hPa | - | - | - | - |
* Rain since midnight (hover to see other rain measurements)
** Current wind speed in m/s (hover to see current wind gust speed)